sensor_id;sensor_type;location;lat;lon;timestamp;temperature;humidity
20881;DHT22;10600;53.096;8.802;2023-05-07T00:00:36;11.20;99.90
20881;DHT22;10600;53.096;8.802;2023-05-07T00:01:37;11.20;99.90
20881;DHT22;10600;53.096;8.802;2023-05-07T00:02:38;11.20;99.90
20881;DHT22;10600;53.096;8.802;2023-05-07T00:03:38;11.20;99.90
20881;DHT22;10600;53.096;8.802;2023-05-07T00:04:42;11.20;99.90
20881;DHT22;10600;53.096;8.802;2023-05-07T00:05:42;11.20;99.90
20881;DHT22;10600;53.096;8.802;2023-05-07T00:06:43;11.20;99.90
20881;DHT22;10600;53.096;8.802;2023-05-07T00:07:44;11.20;99.90
20881;DHT22;10600;53.096;8.802;2023-05-07T00:08:44;11.20;99.90
20881;DHT22;10600;53.096;8.802;2023-05-07T00:09:45;11.20;99.90
20881;DHT22;10600;53.096;8.802;2023-05-07T00:10:45;11.20;99.90
20881;DHT22;10600;53.096;8.802;2023-05-07T00:11:46;11.20;99.90
20881;DHT22;10600;53.096;8.802;2023-05-07T00:12:47;11.20;99.90
20881;DHT22;10600;53.096;8.802;2023-05-07T00:13:48;11.10;99.90
20881;DHT22;10600;53.096;8.802;2023-05-07T00:14:49;11.20;99.90
20881;DHT22;10600;53.096;8.802;2023-05-07T00:15:49;11.20;99.90
20881;DHT22;10600;53.096;8.802;2023-05-07T00:16:50;11.20;99.90
20881;DHT22;10600;53.096;8.802;2023-05-07T00:17:51;11.10;99.90
20881;DHT22;10600;53.096;8.802;2023-05-07T00:18:52;11.10;99.90
20881;DHT22;10600;53.096;8.802;2023-05-07T00:19:53;11.10;99.90
20881;DHT22;10600;53.096;8.802;2023-05-07T00:20:53;11.00;99.90
20881;DHT22;10600;53.096;8.802;2023-05-07T00:21:54;11.00;99.90
20881;DHT22;10600;53.096;8.802;2023-05-07T00:22:56;11.00;99.90
20881;DHT22;10600;53.096;8.802;2023-05-07T00:23:56;11.00;99.90
20881;DHT22;10600;53.096;8.802;2023-05-07T00:24:57;11.00;99.90
20881;DHT22;10600;53.096;8.802;2023-05-07T00:25:58;11.00;99.90
20881;DHT22;10600;53.096;8.802;2023-05-07T00:26:58;10.90;99.90
20881;DHT22;10600;53.096;8.802;2023-05-07T00:27:59;10.90;99.90
20881;DHT22;10600;53.096;8.802;2023-05-07T00:29:03;10.90;99.90
20881;DHT22;10600;53.096;8.802;2023-05-07T00:30:05;10.90;99.90
20881;DHT22;10600;53.096;8.802;2023-05-07T00:31:06;10.90;99.90
20881;DHT22;10600;53.096;8.802;2023-05-07T00:32:08;10.90;99.90
20881;DHT22;10600;53.096;8.802;2023-05-07T00:33:08;10.90;99.90
20881;DHT22;10600;53.096;8.802;2023-05-07T00:34:09;10.80;99.90
20881;DHT22;10600;53.096;8.802;2023-05-07T00:35:10;10.80;99.90
20881;DHT22;10600;53.096;8.802;2023-05-07T00:36:10;10.80;99.90
20881;DHT22;10600;53.096;8.802;2023-05-07T00:37:11;10.90;99.90
20881;DHT22;10600;53.096;8.802;2023-05-07T00:38:12;10.90;99.90
20881;DHT22;10600;53.096;8.802;2023-05-07T00:39:12;10.90;99.90
20881;DHT22;10600;53.096;8.802;2023-05-07T00:40:13;10.90;99.90
20881;DHT22;10600;53.096;8.802;2023-05-07T00:41:15;10.90;99.90
20881;DHT22;10600;53.096;8.802;2023-05-07T00:42:15;10.90;99.90
20881;DHT22;10600;53.096;8.802;2023-05-07T00:43:16;10.80;99.90
20881;DHT22;10600;53.096;8.802;2023-05-07T00:44:17;10.80;99.90
20881;DHT22;10600;53.096;8.802;2023-05-07T00:45:18;10.90;99.90
20881;DHT22;10600;53.096;8.802;2023-05-07T00:46:20;10.90;99.90
20881;DHT22;10600;53.096;8.802;2023-05-07T00:47:21;10.90;99.90
20881;DHT22;10600;53.096;8.802;2023-05-07T00:48:22;10.90;99.90
20881;DHT22;10600;53.096;8.802;2023-05-07T00:49:38;10.80;99.90
20881;DHT22;10600;53.096;8.802;2023-05-07T00:50:39;10.80;99.90
20881;DHT22;10600;53.096;8.802;2023-05-07T00:51:40;10.90;99.90
20881;DHT22;10600;53.096;8.802;2023-05-07T00:52:40;10.90;99.90
20881;DHT22;10600;53.096;8.802;2023-05-07T00:53:42;10.90;99.90
20881;DHT22;10600;53.096;8.802;2023-05-07T00:54:43;10.80;99.90
20881;DHT22;10600;53.096;8.802;2023-05-07T00:55:44;10.90;99.90
20881;DHT22;10600;53.096;8.802;2023-05-07T00:56:45;10.90;99.90
20881;DHT22;10600;53.096;8.802;2023-05-07T00:57:46;10.90;99.90
20881;DHT22;10600;53.096;8.802;2023-05-07T00:58:47;10.90;99.90
20881;DHT22;10600;53.096;8.802;2023-05-07T00:59:48;10.90;99.90
20881;DHT22;10600;53.096;8.802;2023-05-07T01:00:49;10.90;99.90
20881;DHT22;10600;53.096;8.802;2023-05-07T01:01:50;10.90;99.90
20881;DHT22;10600;53.096;8.802;2023-05-07T01:02:52;10.90;99.90
20881;DHT22;10600;53.096;8.802;2023-05-07T01:03:53;10.90;99.90
20881;DHT22;10600;53.096;8.802;2023-05-07T01:04:55;10.90;99.90
20881;DHT22;10600;53.096;8.802;2023-05-07T01:05:57;10.90;99.90
20881;DHT22;10600;53.096;8.802;2023-05-07T01:06:59;10.90;99.90
20881;DHT22;10600;53.096;8.802;2023-05-07T01:08:02;10.90;99.90
20881;DHT22;10600;53.096;8.802;2023-05-07T01:09:04;10.90;99.90
20881;DHT22;10600;53.096;8.802;2023-05-07T01:10:06;10.90;99.90
20881;DHT22;10600;53.096;8.802;2023-05-07T01:11:08;10.80;99.90
20881;DHT22;10600;53.096;8.802;2023-05-07T01:12:09;10.80;99.90
20881;DHT22;10600;53.096;8.802;2023-05-07T01:13:11;10.80;99.90
20881;DHT22;10600;53.096;8.802;2023-05-07T01:14:12;10.80;99.90
20881;DHT22;10600;53.096;8.802;2023-05-07T01:15:13;10.80;99.90
20881;DHT22;10600;53.096;8.802;2023-05-07T01:16:14;10.80;99.90
20881;DHT22;10600;53.096;8.802;2023-05-07T01:17:15;10.80;99.90
20881;DHT22;10600;53.096;8.802;2023-05-07T01:18:16;10.90;99.90
20881;DHT22;10600;53.096;8.802;2023-05-07T01:19:18;10.80;99.90
20881;DHT22;10600;53.096;8.802;2023-05-07T01:20:19;10.80;99.90
20881;DHT22;10600;53.096;8.802;2023-05-07T01:21:25;10.80;99.90
20881;DHT22;10600;53.096;8.802;2023-05-07T01:22:31;10.80;99.90
20881;DHT22;10600;53.096;8.802;2023-05-07T01:23:33;10.80;99.90
20881;DHT22;10600;53.096;8.802;2023-05-07T01:24:36;10.80;99.90
20881;DHT22;10600;53.096;8.802;2023-05-07T01:25:37;10.70;99.90
20881;DHT22;10600;53.096;8.802;2023-05-07T01:26:39;10.70;99.90
20881;DHT22;10600;53.096;8.802;2023-05-07T01:27:40;10.70;99.90
20881;DHT22;10600;53.096;8.802;2023-05-07T01:28:40;10.70;99.90
20881;DHT22;10600;53.096;8.802;2023-05-07T01:29:41;10.70;99.90
20881;DHT22;10600;53.096;8.802;2023-05-07T01:30:43;10.80;99.90
20881;DHT22;10600;53.096;8.802;2023-05-07T01:31:46;10.80;99.90
20881;DHT22;10600;53.096;8.802;2023-05-07T01:32:48;10.80;99.90
20881;DHT22;10600;53.096;8.802;2023-05-07T01:33:52;10.70;99.90
20881;DHT22;10600;53.096;8.802;2023-05-07T01:34:54;10.80;99.90
20881;DHT22;10600;53.096;8.802;2023-05-07T01:35:55;10.70;99.90
20881;DHT22;10600;53.096;8.802;2023-05-07T01:36:56;10.70;99.90
20881;DHT22;10600;53.096;8.802;2023-05-07T01:37:59;10.70;99.90
20881;DHT22;10600;53.096;8.802;2023-05-07T01:39:01;10.70;99.90
20881;DHT22;10600;53.096;8.802;2023-05-07T01:40:03;10.70;99.90
20881;DHT22;10600;53.096;8.802;2023-05-07T01:41:04;10.60;99.90
20881;DHT22;10600;53.096;8.802;2023-05-07T01:42:05;10.70;99.90
20881;DHT22;10600;53.096;8.802;2023-05-07T01:43:06;10.60;99.90
20881;DHT22;10600;53.096;8.802;2023-05-07T01:44:07;10.60;99.90
20881;DHT22;10600;53.096;8.802;2023-05-07T01:45:09;10.60;99.90
20881;DHT22;10600;53.096;8.802;2023-05-07T01:46:10;10.60;99.90
20881;DHT22;10600;53.096;8.802;2023-05-07T01:47:13;10.60;99.90
20881;DHT22;10600;53.096;8.802;2023-05-07T01:48:18;10.50;99.90
20881;DHT22;10600;53.096;8.802;2023-05-07T01:49:18;10.50;99.90
20881;DHT22;10600;53.096;8.802;2023-05-07T01:50:20;10.50;99.90
20881;DHT22;10600;53.096;8.802;2023-05-07T01:51:21;10.50;99.90
20881;DHT22;10600;53.096;8.802;2023-05-07T01:52:22;10.50;99.90
20881;DHT22;10600;53.096;8.802;2023-05-07T01:53:23;10.50;99.90
20881;DHT22;10600;53.096;8.802;2023-05-07T01:54:27;10.50;99.90
20881;DHT22;10600;53.096;8.802;2023-05-07T01:55:28;10.40;99.90
20881;DHT22;10600;53.096;8.802;2023-05-07T01:56:28;10.40;99.90
20881;DHT22;10600;53.096;8.802;2023-05-07T01:57:29;10.40;99.90
20881;DHT22;10600;53.096;8.802;2023-05-07T01:58:30;10.40;99.90
20881;DHT22;10600;53.096;8.802;2023-05-07T01:59:30;10.40;99.90
20881;DHT22;10600;53.096;8.802;2023-05-07T02:00:31;10.40;99.90
20881;DHT22;10600;53.096;8.802;2023-05-07T02:01:32;10.40;99.90
20881;DHT22;10600;53.096;8.802;2023-05-07T02:02:32;10.30;99.90
20881;DHT22;10600;53.096;8.802;2023-05-07T02:03:33;10.30;99.90
20881;DHT22;10600;53.096;8.802;2023-05-07T02:04:37;10.30;99.90
20881;DHT22;10600;53.096;8.802;2023-05-07T02:05:38;10.30;99.90
20881;DHT22;10600;53.096;8.802;2023-05-07T02:06:39;10.30;99.90
20881;DHT22;10600;53.096;8.802;2023-05-07T02:07:39;10.30;99.90
20881;DHT22;10600;53.096;8.802;2023-05-07T02:08:40;10.30;99.90
20881;DHT22;10600;53.096;8.802;2023-05-07T02:09:41;10.30;99.90
20881;DHT22;10600;53.096;8.802;2023-05-07T02:10:41;10.20;99.90
20881;DHT22;10600;53.096;8.802;2023-05-07T02:11:42;10.20;99.90
20881;DHT22;10600;53.096;8.802;2023-05-07T02:12:42;10.20;99.90
20881;DHT22;10600;53.096;8.802;2023-05-07T02:13:43;10.20;99.90
20881;DHT22;10600;53.096;8.802;2023-05-07T02:14:43;10.20;99.90
20881;DHT22;10600;53.096;8.802;2023-05-07T02:15:44;10.20;99.90
20881;DHT22;10600;53.096;8.802;2023-05-07T02:16:49;10.20;99.90
20881;DHT22;10600;53.096;8.802;2023-05-07T02:18:03;10.20;99.90
20881;DHT22;10600;53.096;8.802;2023-05-07T02:19:04;10.20;99.90
20881;DHT22;10600;53.096;8.802;2023-05-07T02:20:05;10.20;99.90
20881;DHT22;10600;53.096;8.802;2023-05-07T02:21:07;10.20;99.90
20881;DHT22;10600;53.096;8.802;2023-05-07T02:22:09;10.20;99.90
20881;DHT22;10600;53.096;8.802;2023-05-07T02:23:09;10.20;99.90
20881;DHT22;10600;53.096;8.802;2023-05-07T02:24:10;10.20;99.90
20881;DHT22;10600;53.096;8.802;2023-05-07T02:25:10;10.20;99.90
20881;DHT22;10600;53.096;8.802;2023-05-07T02:26:11;10.20;99.90
20881;DHT22;10600;53.096;8.802;2023-05-07T02:27:12;10.20;99.90
20881;DHT22;10600;53.096;8.802;2023-05-07T02:28:12;10.20;99.90
20881;DHT22;10600;53.096;8.802;2023-05-07T02:29:13;10.20;99.90
20881;DHT22;10600;53.096;8.802;2023-05-07T02:30:14;10.20;99.90
20881;DHT22;10600;53.096;8.802;2023-05-07T02:31:15;10.20;99.90
20881;DHT22;10600;53.096;8.802;2023-05-07T02:32:15;10.20;99.90
20881;DHT22;10600;53.096;8.802;2023-05-07T02:33:16;10.30;99.90
20881;DHT22;10600;53.096;8.802;2023-05-07T02:34:17;10.30;99.90
20881;DHT22;10600;53.096;8.802;2023-05-07T02:35:17;10.30;99.90
20881;DHT22;10600;53.096;8.802;2023-05-07T02:36:18;10.30;99.90
20881;DHT22;10600;53.096;8.802;2023-05-07T02:37:19;10.30;99.90
20881;DHT22;10600;53.096;8.802;2023-05-07T02:38:19;10.20;99.90
20881;DHT22;10600;53.096;8.802;2023-05-07T02:39:20;10.20;99.90
20881;DHT22;10600;53.096;8.802;2023-05-07T02:40:21;10.20;99.90
20881;DHT22;10600;53.096;8.802;2023-05-07T02:41:21;10.20;99.90
20881;DHT22;10600;53.096;8.802;2023-05-07T02:42:22;10.20;99.90
20881;DHT22;10600;53.096;8.802;2023-05-07T02:43:22;10.20;99.90
20881;DHT22;10600;53.096;8.802;2023-05-07T02:44:23;10.20;99.90
20881;DHT22;10600;53.096;8.802;2023-05-07T02:45:24;10.20;99.90
20881;DHT22;10600;53.096;8.802;2023-05-07T02:46:24;10.20;99.90
20881;DHT22;10600;53.096;8.802;2023-05-07T02:47:25;10.20;99.90
20881;DHT22;10600;53.096;8.802;2023-05-07T02:48:29;10.20;99.90
20881;DHT22;10600;53.096;8.802;2023-05-07T02:49:29;10.20;99.90
20881;DHT22;10600;53.096;8.802;2023-05-07T02:50:30;10.30;99.90
20881;DHT22;10600;53.096;8.802;2023-05-07T02:51:30;10.30;99.90
20881;DHT22;10600;53.096;8.802;2023-05-07T02:52:31;10.30;99.90
20881;DHT22;10600;53.096;8.802;2023-05-07T02:53:32;10.30;99.90
20881;DHT22;10600;53.096;8.802;2023-05-07T02:54:33;10.30;99.90
20881;DHT22;10600;53.096;8.802;2023-05-07T02:55:33;10.30;99.90
20881;DHT22;10600;53.096;8.802;2023-05-07T02:56:34;10.30;99.90
20881;DHT22;10600;53.096;8.802;2023-05-07T02:57:35;10.30;99.90
20881;DHT22;10600;53.096;8.802;2023-05-07T02:58:35;10.30;99.90
20881;DHT22;10600;53.096;8.802;2023-05-07T02:59:36;10.30;99.90
20881;DHT22;10600;53.096;8.802;2023-05-07T03:00:37;10.30;99.90
20881;DHT22;10600;53.096;8.802;2023-05-07T03:01:37;10.30;99.90
20881;DHT22;10600;53.096;8.802;2023-05-07T03:02:38;10.30;99.90
20881;DHT22;10600;53.096;8.802;2023-05-07T03:03:39;10.30;99.90
20881;DHT22;10600;53.096;8.802;2023-05-07T03:04:39;10.30;99.90
20881;DHT22;10600;53.096;8.802;2023-05-07T03:05:40;10.30;99.90
20881;DHT22;10600;53.096;8.802;2023-05-07T03:06:41;10.30;99.90
20881;DHT22;10600;53.096;8.802;2023-05-07T03:07:41;10.30;99.90
20881;DHT22;10600;53.096;8.802;2023-05-07T03:08:45;10.30;99.90
20881;DHT22;10600;53.096;8.802;2023-05-07T03:09:46;10.30;99.90
20881;DHT22;10600;53.096;8.802;2023-05-07T03:10:47;10.30;99.90
20881;DHT22;10600;53.096;8.802;2023-05-07T03:11:47;10.30;99.90
20881;DHT22;10600;53.096;8.802;2023-05-07T03:12:48;10.30;99.90
20881;DHT22;10600;53.096;8.802;2023-05-07T03:13:48;10.30;99.90
20881;DHT22;10600;53.096;8.802;2023-05-07T03:14:49;10.30;99.90
20881;DHT22;10600;53.096;8.802;2023-05-07T03:15:50;10.30;99.90
20881;DHT22;10600;53.096;8.802;2023-05-07T03:16:51;10.20;99.90
20881;DHT22;10600;53.096;8.802;2023-05-07T03:17:51;10.30;99.90
20881;DHT22;10600;53.096;8.802;2023-05-07T03:18:52;10.30;99.90
20881;DHT22;10600;53.096;8.802;2023-05-07T03:19:53;10.20;99.90
20881;DHT22;10600;53.096;8.802;2023-05-07T03:20:53;10.20;99.90
20881;DHT22;10600;53.096;8.802;2023-05-07T03:21:54;10.20;99.90
20881;DHT22;10600;53.096;8.802;2023-05-07T03:22:55;10.20;99.90
20881;DHT22;10600;53.096;8.802;2023-05-07T03:23:56;10.20;99.90
20881;DHT22;10600;53.096;8.802;2023-05-07T03:24:57;10.30;99.90
20881;DHT22;10600;53.096;8.802;2023-05-07T03:25:57;10.30;99.90
20881;DHT22;10600;53.096;8.802;2023-05-07T03:26:58;10.20;99.90
20881;DHT22;10600;53.096;8.802;2023-05-07T03:27:58;10.20;99.90
20881;DHT22;10600;53.096;8.802;2023-05-07T03:28:59;10.20;99.90
20881;DHT22;10600;53.096;8.802;2023-05-07T03:30:01;10.20;99.90
20881;DHT22;10600;53.096;8.802;2023-05-07T03:31:01;10.20;99.90
20881;DHT22;10600;53.096;8.802;2023-05-07T03:32:02;10.30;99.90
20881;DHT22;10600;53.096;8.802;2023-05-07T03:33:03;10.20;99.90
20881;DHT22;10600;53.096;8.802;2023-05-07T03:34:04;10.30;99.90
20881;DHT22;10600;53.096;8.802;2023-05-07T03:35:05;10.20;99.90
20881;DHT22;10600;53.096;8.802;2023-05-07T03:36:06;10.20;99.90
20881;DHT22;10600;53.096;8.802;2023-05-07T03:37:06;10.20;99.90
20881;DHT22;10600;53.096;8.802;2023-05-07T03:38:07;10.10;99.90
20881;DHT22;10600;53.096;8.802;2023-05-07T03:39:08;10.10;99.90
20881;DHT22;10600;53.096;8.802;2023-05-07T03:40:09;10.10;99.90
20881;DHT22;10600;53.096;8.802;2023-05-07T03:41:10;10.10;99.90
20881;DHT22;10600;53.096;8.802;2023-05-07T03:42:11;10.10;99.90
20881;DHT22;10600;53.096;8.802;2023-05-07T03:43:11;10.10;99.90
20881;DHT22;10600;53.096;8.802;2023-05-07T03:44:12;10.10;99.90
20881;DHT22;10600;53.096;8.802;2023-05-07T03:45:12;10.10;99.90
20881;DHT22;10600;53.096;8.802;2023-05-07T03:46:13;10.10;99.90
20881;DHT22;10600;53.096;8.802;2023-05-07T03:47:14;10.10;99.90
20881;DHT22;10600;53.096;8.802;2023-05-07T03:48:15;10.10;99.90
20881;DHT22;10600;53.096;8.802;2023-05-07T03:49:15;10.10;99.90
20881;DHT22;10600;53.096;8.802;2023-05-07T03:50:16;10.20;99.90
20881;DHT22;10600;53.096;8.802;2023-05-07T03:51:16;10.20;99.90
20881;DHT22;10600;53.096;8.802;2023-05-07T03:52:17;10.20;99.90
20881;DHT22;10600;53.096;8.802;2023-05-07T03:53:22;10.20;99.90
20881;DHT22;10600;53.096;8.802;2023-05-07T03:54:23;10.20;99.90
20881;DHT22;10600;53.096;8.802;2023-05-07T03:55:23;10.20;99.90
20881;DHT22;10600;53.096;8.802;2023-05-07T03:56:25;10.20;99.90
20881;DHT22;10600;53.096;8.802;2023-05-07T03:57:26;10.20;99.90
20881;DHT22;10600;53.096;8.802;2023-05-07T03:58:27;10.20;99.90
20881;DHT22;10600;53.096;8.802;2023-05-07T03:59:28;10.20;99.90
20881;DHT22;10600;53.096;8.802;2023-05-07T04:00:29;10.30;99.90
20881;DHT22;10600;53.096;8.802;2023-05-07T04:01:33;10.30;99.90
20881;DHT22;10600;53.096;8.802;2023-05-07T04:02:34;10.30;99.90
20881;DHT22;10600;53.096;8.802;2023-05-07T04:03:35;10.20;99.90
20881;DHT22;10600;53.096;8.802;2023-05-07T04:04:35;10.20;99.90
20881;DHT22;10600;53.096;8.802;2023-05-07T04:05:36;10.20;99.90
20881;DHT22;10600;53.096;8.802;2023-05-07T04:06:37;10.20;99.90
20881;DHT22;10600;53.096;8.802;2023-05-07T04:07:37;10.20;99.90
20881;DHT22;10600;53.096;8.802;2023-05-07T04:08:38;10.20;99.90
20881;DHT22;10600;53.096;8.802;2023-05-07T04:09:38;10.20;99.90
20881;DHT22;10600;53.096;8.802;2023-05-07T04:10:39;10.20;99.90
20881;DHT22;10600;53.096;8.802;2023-05-07T04:11:40;10.20;99.90
20881;DHT22;10600;53.096;8.802;2023-05-07T04:12:40;10.20;99.90
20881;DHT22;10600;53.096;8.802;2023-05-07T04:13:41;10.20;99.90
20881;DHT22;10600;53.096;8.802;2023-05-07T04:14:42;10.20;99.90
20881;DHT22;10600;53.096;8.802;2023-05-07T04:15:42;10.20;99.90
20881;DHT22;10600;53.096;8.802;2023-05-07T04:16:43;10.20;99.90
20881;DHT22;10600;53.096;8.802;2023-05-07T04:17:43;10.20;99.90
20881;DHT22;10600;53.096;8.802;2023-05-07T04:18:44;10.10;99.90
20881;DHT22;10600;53.096;8.802;2023-05-07T04:19:45;10.10;99.90
20881;DHT22;10600;53.096;8.802;2023-05-07T04:20:45;10.10;99.90
20881;DHT22;10600;53.096;8.802;2023-05-07T04:21:46;10.10;99.90
20881;DHT22;10600;53.096;8.802;2023-05-07T04:22:46;10.20;99.90
20881;DHT22;10600;53.096;8.802;2023-05-07T04:23:48;10.20;99.90
20881;DHT22;10600;53.096;8.802;2023-05-07T04:24:48;10.20;99.90
20881;DHT22;10600;53.096;8.802;2023-05-07T04:25:50;10.20;99.90
20881;DHT22;10600;53.096;8.802;2023-05-07T04:26:50;10.20;99.90
20881;DHT22;10600;53.096;8.802;2023-05-07T04:27:55;10.20;99.90
20881;DHT22;10600;53.096;8.802;2023-05-07T04:28:56;10.30;99.90
20881;DHT22;10600;53.096;8.802;2023-05-07T04:29:58;10.30;99.90
20881;DHT22;10600;53.096;8.802;2023-05-07T04:30:58;10.30;99.90
20881;DHT22;10600;53.096;8.802;2023-05-07T04:31:59;10.30;99.90
20881;DHT22;10600;53.096;8.802;2023-05-07T04:33:00;10.30;99.90
20881;DHT22;10600;53.096;8.802;2023-05-07T04:34:00;10.40;99.90
20881;DHT22;10600;53.096;8.802;2023-05-07T04:35:02;10.30;99.90
20881;DHT22;10600;53.096;8.802;2023-05-07T04:36:03;10.30;99.90
20881;DHT22;10600;53.096;8.802;2023-05-07T04:37:04;10.30;99.90
20881;DHT22;10600;53.096;8.802;2023-05-07T04:38:04;10.30;99.90
20881;DHT22;10600;53.096;8.802;2023-05-07T04:39:05;10.20;99.90
20881;DHT22;10600;53.096;8.802;2023-05-07T04:40:07;10.20;99.90
20881;DHT22;10600;53.096;8.802;2023-05-07T04:41:08;10.20;99.90
20881;DHT22;10600;53.096;8.802;2023-05-07T04:42:09;10.20;99.90
20881;DHT22;10600;53.096;8.802;2023-05-07T04:43:14;10.20;99.90
20881;DHT22;10600;53.096;8.802;2023-05-07T04:44:16;10.20;99.90
20881;DHT22;10600;53.096;8.802;2023-05-07T04:45:17;10.20;99.90
20881;DHT22;10600;53.096;8.802;2023-05-07T04:46:17;10.20;99.90
20881;DHT22;10600;53.096;8.802;2023-05-07T04:47:18;10.20;99.90
20881;DHT22;10600;53.096;8.802;2023-05-07T04:48:19;10.20;99.90
20881;DHT22;10600;53.096;8.802;2023-05-07T04:49:20;10.20;99.90
20881;DHT22;10600;53.096;8.802;2023-05-07T04:50:21;10.20;99.90
20881;DHT22;10600;53.096;8.802;2023-05-07T04:51:23;10.20;99.90
20881;DHT22;10600;53.096;8.802;2023-05-07T04:52:24;10.30;99.90
20881;DHT22;10600;53.096;8.802;2023-05-07T04:53:25;10.20;99.90
20881;DHT22;10600;53.096;8.802;2023-05-07T04:54:25;10.20;99.90
20881;DHT22;10600;53.096;8.802;2023-05-07T04:55:26;10.20;99.90
20881;DHT22;10600;53.096;8.802;2023-05-07T04:56:28;10.30;99.90
20881;DHT22;10600;53.096;8.802;2023-05-07T04:57:30;10.30;99.90
20881;DHT22;10600;53.096;8.802;2023-05-07T04:58:30;10.30;99.90
20881;DHT22;10600;53.096;8.802;2023-05-07T04:59:32;10.40;99.90
20881;DHT22;10600;53.096;8.802;2023-05-07T05:00:33;10.40;99.90
20881;DHT22;10600;53.096;8.802;2023-05-07T05:01:34;10.40;99.90
20881;DHT22;10600;53.096;8.802;2023-05-07T05:02:35;10.40;99.90
20881;DHT22;10600;53.096;8.802;2023-05-07T05:03:35;10.50;99.90
20881;DHT22;10600;53.096;8.802;2023-05-07T05:04:36;10.50;99.90
20881;DHT22;10600;53.096;8.802;2023-05-07T05:05:37;10.50;99.90
20881;DHT22;10600;53.096;8.802;2023-05-07T05:06:38;10.50;99.90
20881;DHT22;10600;53.096;8.802;2023-05-07T05:07:39;10.60;99.90
20881;DHT22;10600;53.096;8.802;2023-05-07T05:08:40;10.60;99.90
20881;DHT22;10600;53.096;8.802;2023-05-07T05:09:40;10.50;99.90
20881;DHT22;10600;53.096;8.802;2023-05-07T05:10:41;10.50;99.90
20881;DHT22;10600;53.096;8.802;2023-05-07T05:11:42;10.50;99.90
20881;DHT22;10600;53.096;8.802;2023-05-07T05:12:43;10.50;99.90
20881;DHT22;10600;53.096;8.802;2023-05-07T05:13:44;10.50;99.90
20881;DHT22;10600;53.096;8.802;2023-05-07T05:14:45;10.60;99.90
20881;DHT22;10600;53.096;8.802;2023-05-07T05:15:46;10.60;99.90
20881;DHT22;10600;53.096;8.802;2023-05-07T05:16:46;10.60;99.90
20881;DHT22;10600;53.096;8.802;2023-05-07T05:17:47;10.60;99.90
20881;DHT22;10600;53.096;8.802;2023-05-07T05:18:47;10.60;99.90
20881;DHT22;10600;53.096;8.802;2023-05-07T05:19:48;10.60;99.90
20881;DHT22;10600;53.096;8.802;2023-05-07T05:20:49;10.70;99.90
20881;DHT22;10600;53.096;8.802;2023-05-07T05:21:50;10.60;99.90
20881;DHT22;10600;53.096;8.802;2023-05-07T05:22:50;10.70;99.90
20881;DHT22;10600;53.096;8.802;2023-05-07T05:23:51;10.60;99.90
20881;DHT22;10600;53.096;8.802;2023-05-07T05:24:52;10.70;99.90
20881;DHT22;10600;53.096;8.802;2023-05-07T05:25:56;10.70;99.90
20881;DHT22;10600;53.096;8.802;2023-05-07T05:27:00;10.70;99.90
20881;DHT22;10600;53.096;8.802;2023-05-07T05:28:03;10.70;99.90
20881;DHT22;10600;53.096;8.802;2023-05-07T05:29:03;10.70;99.90
20881;DHT22;10600;53.096;8.802;2023-05-07T05:30:04;10.60;99.90
20881;DHT22;10600;53.096;8.802;2023-05-07T05:31:06;10.70;99.90
20881;DHT22;10600;53.096;8.802;2023-05-07T05:32:06;10.70;99.90
20881;DHT22;10600;53.096;8.802;2023-05-07T05:33:07;10.60;99.90
20881;DHT22;10600;53.096;8.802;2023-05-07T05:34:07;10.70;99.90
20881;DHT22;10600;53.096;8.802;2023-05-07T05:35:08;10.70;99.90
20881;DHT22;10600;53.096;8.802;2023-05-07T05:36:09;10.80;99.90
20881;DHT22;10600;53.096;8.802;2023-05-07T05:37:11;10.70;99.90
20881;DHT22;10600;53.096;8.802;2023-05-07T05:38:11;10.70;99.90
20881;DHT22;10600;53.096;8.802;2023-05-07T05:39:12;10.70;99.90
20881;DHT22;10600;53.096;8.802;2023-05-07T05:40:13;10.70;99.90
20881;DHT22;10600;53.096;8.802;2023-05-07T05:41:13;10.70;99.90
20881;DHT22;10600;53.096;8.802;2023-05-07T05:42:14;10.70;99.90
20881;DHT22;10600;53.096;8.802;2023-05-07T05:43:14;10.70;99.90
20881;DHT22;10600;53.096;8.802;2023-05-07T05:44:15;10.80;99.90
20881;DHT22;10600;53.096;8.802;2023-05-07T05:45:16;10.70;99.90
20881;DHT22;10600;53.096;8.802;2023-05-07T05:46:16;10.80;99.90
20881;DHT22;10600;53.096;8.802;2023-05-07T05:47:17;10.80;99.90
20881;DHT22;10600;53.096;8.802;2023-05-07T05:48:18;10.80;99.90
20881;DHT22;10600;53.096;8.802;2023-05-07T05:49:19;10.90;99.90
20881;DHT22;10600;53.096;8.802;2023-05-07T05:50:20;10.80;99.90
20881;DHT22;10600;53.096;8.802;2023-05-07T05:51:21;10.90;99.90
20881;DHT22;10600;53.096;8.802;2023-05-07T05:52:22;10.90;99.90
20881;DHT22;10600;53.096;8.802;2023-05-07T05:53:24;10.90;99.90
20881;DHT22;10600;53.096;8.802;2023-05-07T05:54:24;10.90;99.90
20881;DHT22;10600;53.096;8.802;2023-05-07T05:55:25;10.90;99.90
20881;DHT22;10600;53.096;8.802;2023-05-07T05:56:26;10.90;99.90
20881;DHT22;10600;53.096;8.802;2023-05-07T05:57:27;10.90;99.90
20881;DHT22;10600;53.096;8.802;2023-05-07T05:58:27;11.00;99.90
20881;DHT22;10600;53.096;8.802;2023-05-07T05:59:28;11.00;99.90
20881;DHT22;10600;53.096;8.802;2023-05-07T06:00:29;11.10;99.90
20881;DHT22;10600;53.096;8.802;2023-05-07T06:01:29;11.10;99.90
20881;DHT22;10600;53.096;8.802;2023-05-07T06:02:30;11.10;99.90
20881;DHT22;10600;53.096;8.802;2023-05-07T06:03:31;11.20;99.90
20881;DHT22;10600;53.096;8.802;2023-05-07T06:04:32;11.20;99.90
20881;DHT22;10600;53.096;8.802;2023-05-07T06:05:33;11.10;99.90
20881;DHT22;10600;53.096;8.802;2023-05-07T06:06:34;11.10;99.90
20881;DHT22;10600;53.096;8.802;2023-05-07T06:07:34;11.20;99.90
20881;DHT22;10600;53.096;8.802;2023-05-07T06:08:35;11.20;99.90
20881;DHT22;10600;53.096;8.802;2023-05-07T06:09:36;11.20;99.90
20881;DHT22;10600;53.096;8.802;2023-05-07T06:10:37;11.20;99.90
20881;DHT22;10600;53.096;8.802;2023-05-07T06:11:38;11.20;99.90
20881;DHT22;10600;53.096;8.802;2023-05-07T06:12:40;11.20;99.90
20881;DHT22;10600;53.096;8.802;2023-05-07T06:13:40;11.20;99.90
20881;DHT22;10600;53.096;8.802;2023-05-07T06:14:43;11.20;99.90
20881;DHT22;10600;53.096;8.802;2023-05-07T06:15:43;11.20;99.90
20881;DHT22;10600;53.096;8.802;2023-05-07T06:16:44;11.20;99.90
20881;DHT22;10600;53.096;8.802;2023-05-07T06:17:45;11.10;99.90
20881;DHT22;10600;53.096;8.802;2023-05-07T06:18:46;11.20;99.90
20881;DHT22;10600;53.096;8.802;2023-05-07T06:19:47;11.20;99.90
20881;DHT22;10600;53.096;8.802;2023-05-07T06:20:47;11.20;99.90
20881;DHT22;10600;53.096;8.802;2023-05-07T06:21:48;11.20;99.90
20881;DHT22;10600;53.096;8.802;2023-05-07T06:22:49;11.10;99.90
20881;DHT22;10600;53.096;8.802;2023-05-07T06:23:49;11.20;99.90
20881;DHT22;10600;53.096;8.802;2023-05-07T06:24:52;11.20;99.90
20881;DHT22;10600;53.096;8.802;2023-05-07T06:25:52;11.20;99.90